createdAt,value
2019-05-15T00:01:53.594Z,73.40
2019-05-15T00:04:23.761Z,73.30
2019-05-15T00:06:54.084Z,73.60
2019-05-15T00:09:24.256Z,73.90
2019-05-15T00:11:54.359Z,74.20
2019-05-15T00:14:24.568Z,74.30
2019-05-15T00:16:54.908Z,74.40
2019-05-15T00:19:25.050Z,74.40
2019-05-15T00:21:54.977Z,74.40
2019-05-15T00:24:25.129Z,74.30
2019-05-15T00:26:55.221Z,74.50
2019-05-15T00:29:25.104Z,74.80
2019-05-15T00:31:55.226Z,74.80
2019-05-15T00:34:25.099Z,75.10
2019-05-15T00:36:55.363Z,75.10
2019-05-15T00:39:28.410Z,75.30
2019-05-15T00:41:58.988Z,75.30
2019-05-15T00:44:28.991Z,75.30
2019-05-15T00:46:58.841Z,75.20
2019-05-15T00:49:29.054Z,74.80
2019-05-15T00:51:59.199Z,74.70
2019-05-15T00:54:29.404Z,74.30
2019-05-15T00:56:59.266Z,74.10
2019-05-15T00:59:30.014Z,74.70
2019-05-15T01:02:00.495Z,74.40
2019-05-15T01:04:30.337Z,74.60
2019-05-15T01:07:00.466Z,74.80
2019-05-15T01:09:30.539Z,74.90
2019-05-15T01:12:00.690Z,75.10
2019-05-15T01:14:30.785Z,75.00
2019-05-15T01:17:01.144Z,75.20
2019-05-15T01:19:31.363Z,75.40
2019-05-15T01:22:01.480Z,75.60
2019-05-15T01:24:31.686Z,75.80
2019-05-15T01:27:01.912Z,75.80
2019-05-15T01:29:43.763Z,75.60
2019-05-15T01:32:03.329Z,76.00
2019-05-15T01:34:33.447Z,75.80
2019-05-15T01:37:03.514Z,75.90
2019-05-15T01:39:33.413Z,75.70
2019-05-15T01:42:03.576Z,76.10
2019-05-15T01:44:33.442Z,76.70
2019-05-15T01:47:03.316Z,76.60
2019-05-15T01:49:33.510Z,76.60
2019-05-15T01:52:03.363Z,76.70
2019-05-15T01:54:33.502Z,76.60
2019-05-15T01:57:03.394Z,76.80
2019-05-15T01:59:33.524Z,77.20
2019-05-15T02:02:03.636Z,76.90
2019-05-15T02:04:33.810Z,77.20
2019-05-15T02:07:04.004Z,77.10
2019-05-15T02:09:34.118Z,77.20
2019-05-15T02:12:04.021Z,77.30
2019-05-15T02:14:33.885Z,77.50
2019-05-15T02:17:04.187Z,78.20
2019-05-15T02:19:34.102Z,78.10
2019-05-15T02:22:04.354Z,78.40
2019-05-15T02:24:34.350Z,78.50
2019-05-15T02:27:04.456Z,78.50
2019-05-15T02:29:34.558Z,78.90
2019-05-15T02:32:04.913Z,79.00
2019-05-15T02:34:35.273Z,79.30
2019-05-15T02:37:05.383Z,79.40
2019-05-15T02:39:38.604Z,79.70
2019-05-15T02:42:09.864Z,79.60
2019-05-15T02:44:40.078Z,79.80
2019-05-15T02:47:10.580Z,79.20
2019-05-15T02:49:40.749Z,79.50
2019-05-15T02:52:10.829Z,79.20
2019-05-15T02:54:41.021Z,79.00
2019-05-15T02:57:11.163Z,79.30
2019-05-15T02:59:41.327Z,79.20
2019-05-15T03:02:11.512Z,79.50
2019-05-15T03:04:41.631Z,79.40
2019-05-15T03:07:11.628Z,79.30
2019-05-15T03:09:41.873Z,79.00
2019-05-15T03:12:11.767Z,79.40
2019-05-15T03:14:42.286Z,79.30
2019-05-15T03:17:12.729Z,79.50
2019-05-15T03:19:43.027Z,79.30
2019-05-15T03:22:13.140Z,79.00
2019-05-15T03:24:43.075Z,79.30
2019-05-15T03:27:13.316Z,79.20
2019-05-15T03:29:43.550Z,79.10
2019-05-15T03:32:25.172Z,79.40
2019-05-15T03:34:47.977Z,79.40
2019-05-15T03:37:22.316Z,79.50
2019-05-15T03:39:51.791Z,79.40
2019-05-15T03:42:20.966Z,79.60
2019-05-15T03:44:51.215Z,79.40
2019-05-15T03:47:21.497Z,80.10
2019-05-15T03:49:51.635Z,80.00
2019-05-15T03:52:21.664Z,79.70
2019-05-15T03:54:51.994Z,80.00
2019-05-15T03:57:23.205Z,79.90
2019-05-15T03:59:53.674Z,79.80
2019-05-15T04:02:23.752Z,79.80
2019-05-15T04:04:57.068Z,79.80
2019-05-15T04:07:29.080Z,79.30
2019-05-15T04:09:58.790Z,79.30
2019-05-15T04:12:29.199Z,78.70
2019-05-15T04:15:00.515Z,78.60
2019-05-15T04:17:35.781Z,78.20
2019-05-15T04:20:09.873Z,79.10
2019-05-15T04:22:40.626Z,79.40
2019-05-15T04:25:11.201Z,80.10
2019-05-15T04:27:43.824Z,80.20
2019-05-15T04:30:15.072Z,80.40
2019-05-15T04:32:45.006Z,80.70
2019-05-15T04:35:15.449Z,80.50
2019-05-15T04:37:49.054Z,81.10
2019-05-15T04:40:19.359Z,81.50
2019-05-15T04:42:49.941Z,81.80
2019-05-15T04:45:20.266Z,82.10
2019-05-15T04:47:50.165Z,82.50
2019-05-15T04:50:20.200Z,82.70
2019-05-15T04:52:50.441Z,82.50
2019-05-15T04:55:20.339Z,82.60
2019-05-15T04:57:50.527Z,82.70
2019-05-15T05:00:41.472Z,82.90
2019-05-15T05:03:11.659Z,83.30
2019-05-15T05:05:42.207Z,83.80
2019-05-15T05:08:13.291Z,84.20
2019-05-15T05:10:43.974Z,84.60
2019-05-15T05:13:19.903Z,84.60
2019-05-15T05:15:50.036Z,84.60
2019-05-15T05:18:19.462Z,84.70
2019-05-15T05:20:49.821Z,84.50
2019-05-15T05:23:19.791Z,84.10
2019-05-15T05:25:49.782Z,83.40
2019-05-15T05:28:20.032Z,82.80
2019-05-15T05:30:50.297Z,82.50
2019-05-15T05:33:20.186Z,82.40
2019-05-15T05:35:50.303Z,82.00
2019-05-15T05:38:20.246Z,83.10
2019-05-15T05:40:50.497Z,82.70
2019-05-15T05:43:20.803Z,82.50
2019-05-15T05:45:50.624Z,83.20
2019-05-15T05:48:20.732Z,82.50
2019-05-15T05:50:50.861Z,82.00
2019-05-15T05:53:21.571Z,80.20
2019-05-15T05:55:53.515Z,79.00
2019-05-15T05:58:23.672Z,78.80
2019-05-15T06:00:53.980Z,77.80
2019-05-15T06:03:24.045Z,77.30
2019-05-15T06:05:54.136Z,75.20
2019-05-15T06:08:24.311Z,75.50
2019-05-15T06:10:54.199Z,74.70
2019-05-15T06:13:24.318Z,74.40
2019-05-15T06:15:54.485Z,73.70
2019-05-15T06:18:24.391Z,73.40
2019-05-15T06:20:54.497Z,73.30
2019-05-15T06:23:26.118Z,72.10
2019-05-15T06:25:59.014Z,72.40
2019-05-15T06:28:28.942Z,72.00
2019-05-15T06:31:00.714Z,70.20
2019-05-15T06:33:30.583Z,68.70
2019-05-15T06:36:00.686Z,66.80
2019-05-15T06:38:31.216Z,65.70
2019-05-15T06:41:01.191Z,66.20
2019-05-15T06:43:31.320Z,66.20
2019-05-15T06:46:01.130Z,65.30
2019-05-15T06:48:31.444Z,64.80
2019-05-15T06:51:01.640Z,65.20
2019-05-15T06:53:32.429Z,64.90
2019-05-15T06:56:02.605Z,64.00
2019-05-15T06:58:32.740Z,63.80
2019-05-15T07:01:02.911Z,62.50
2019-05-15T07:03:33.081Z,62.40
2019-05-15T07:06:03.325Z,61.20
2019-05-15T07:08:38.303Z,60.70
2019-05-15T07:11:09.077Z,60.80
2019-05-15T07:13:39.246Z,59.50
2019-05-15T07:16:09.308Z,59.10
2019-05-15T07:18:39.501Z,58.40
2019-05-15T07:21:10.578Z,58.10
2019-05-15T07:23:40.857Z,58.60
2019-05-15T07:26:10.998Z,58.40
2019-05-15T07:28:40.834Z,56.20
2019-05-15T07:31:11.778Z,56.40
2019-05-15T07:33:43.862Z,54.80
2019-05-15T07:36:13.771Z,53.80
2019-05-15T07:38:43.908Z,53.20
2019-05-15T07:41:13.990Z,52.90
2019-05-15T07:43:44.104Z,54.30
2019-05-15T07:46:14.355Z,53.40
2019-05-15T07:48:44.580Z,51.80
2019-05-15T07:51:14.745Z,51.30
2019-05-15T07:53:44.941Z,50.40
2019-05-15T07:56:15.137Z,48.60
2019-05-15T07:58:45.291Z,49.70
2019-05-15T08:01:15.209Z,49.70
2019-05-15T08:03:58.516Z,49.50
2019-05-15T08:06:18.012Z,47.60
2019-05-15T08:08:48.733Z,48.40
2019-05-15T08:11:23.994Z,46.90
2019-05-15T08:13:50.703Z,47.00
2019-05-15T08:16:20.884Z,50.00
2019-05-15T08:18:50.718Z,46.70
2019-05-15T08:21:20.637Z,47.30
2019-05-15T08:23:51.690Z,48.40
2019-05-15T08:26:21.921Z,45.70
2019-05-15T08:28:52.184Z,45.40
2019-05-15T08:31:22.336Z,46.30
2019-05-15T08:33:52.565Z,45.70
2019-05-15T08:36:22.751Z,44.00
2019-05-15T08:38:52.913Z,43.90
2019-05-15T08:41:23.293Z,41.80
2019-05-15T08:44:12.761Z,42.30
2019-05-15T08:46:44.387Z,42.00
2019-05-15T08:49:14.572Z,38.90
2019-05-15T08:51:44.564Z,39.70
2019-05-15T08:54:14.651Z,40.00
2019-05-15T08:56:44.492Z,38.60
2019-05-15T08:59:14.661Z,42.50
2019-05-15T09:01:44.635Z,40.50
2019-05-15T09:04:27.812Z,39.90
2019-05-15T09:06:49.520Z,39.10
2019-05-15T09:09:18.412Z,40.30
2019-05-15T09:11:48.447Z,39.60
2019-05-15T09:14:24.285Z,37.80
2019-05-15T09:16:54.478Z,36.80
2019-05-15T09:19:24.669Z,38.30
2019-05-15T09:21:54.794Z,38.30
2019-05-15T09:24:25.047Z,37.20
2019-05-15T09:26:55.231Z,36.70
2019-05-15T09:29:25.159Z,36.10
2019-05-15T09:31:55.340Z,36.20
2019-05-15T09:34:25.442Z,36.40
2019-05-15T09:36:55.557Z,36.10
2019-05-15T09:39:25.379Z,36.10
2019-05-15T09:41:57.753Z,35.10
2019-05-15T09:44:28.419Z,34.60
2019-05-15T09:46:58.742Z,36.20
2019-05-15T09:49:30.653Z,36.00
2019-05-15T09:52:00.834Z,36.60
2019-05-15T09:54:30.755Z,34.50
2019-05-15T09:57:00.579Z,35.00
2019-05-15T09:59:30.460Z,35.10
2019-05-15T10:02:00.701Z,33.60
2019-05-15T10:04:30.944Z,37.80
2019-05-15T10:07:01.171Z,34.90
2019-05-15T10:09:31.426Z,34.20
2019-05-15T10:12:01.591Z,34.90
2019-05-15T10:14:31.654Z,33.00
2019-05-15T10:17:01.799Z,33.40
2019-05-15T10:19:32.030Z,31.90
2019-05-15T10:22:02.286Z,32.00
2019-05-15T10:24:32.585Z,32.90
2019-05-15T10:27:02.700Z,32.00
2019-05-15T10:29:33.036Z,29.70
2019-05-15T10:32:03.306Z,30.20
2019-05-15T10:34:33.558Z,29.10
2019-05-15T10:37:03.479Z,30.50
2019-05-15T10:39:33.645Z,30.70
2019-05-15T10:42:03.748Z,28.90
2019-05-15T10:44:34.690Z,29.20
2019-05-15T10:47:04.958Z,29.80
2019-05-15T10:49:35.099Z,31.10
2019-05-15T10:52:05.364Z,31.20
2019-05-15T10:54:37.986Z,30.70
2019-05-15T10:57:08.645Z,30.70
2019-05-15T10:59:38.700Z,31.60
2019-05-15T11:02:08.934Z,29.60
2019-05-15T11:04:39.372Z,28.90
2019-05-15T11:07:09.889Z,29.50
2019-05-15T11:09:40.905Z,28.10
2019-05-15T11:12:11.100Z,28.80
2019-05-15T11:14:41.196Z,28.10
2019-05-15T11:17:11.121Z,28.80
2019-05-15T11:19:41.166Z,29.30
2019-05-15T11:22:11.423Z,30.20
2019-05-15T11:24:41.654Z,29.90
2019-05-15T11:27:11.872Z,29.60
2019-05-15T11:29:42.211Z,30.00
2019-05-15T11:32:12.236Z,28.00
2019-05-15T11:34:42.430Z,27.70
2019-05-15T11:37:12.707Z,28.70
2019-05-15T11:39:45.611Z,28.80
2019-05-15T11:42:14.563Z,29.10
2019-05-15T11:44:44.729Z,30.30
2019-05-15T11:47:15.023Z,28.70
2019-05-15T11:49:44.855Z,28.60
2019-05-15T11:52:15.032Z,26.90
2019-05-15T11:54:44.940Z,28.90
2019-05-15T11:57:19.549Z,27.40
2019-05-15T11:59:55.408Z,26.60
2019-05-15T12:02:21.295Z,27.20
2019-05-15T12:04:51.540Z,26.00
2019-05-15T12:07:22.523Z,27.00
2019-05-15T12:09:58.085Z,26.70
2019-05-15T12:12:31.894Z,27.30
2019-05-15T12:15:00.915Z,26.60
2019-05-15T12:17:34.077Z,27.00
2019-05-15T12:20:06.896Z,25.60
2019-05-15T12:22:39.082Z,26.40
2019-05-15T12:25:10.482Z,25.40
2019-05-15T12:27:42.263Z,25.30
2019-05-15T12:30:13.940Z,25.90
2019-05-15T12:32:44.220Z,26.10
2019-05-15T12:35:14.492Z,26.50
2019-05-15T12:37:44.668Z,25.60
2019-05-15T13:00:30.721Z,25.00
2019-05-15T13:03:01.071Z,25.90
2019-05-15T13:05:32.583Z,26.30
2019-05-15T13:08:02.609Z,24.60
2019-05-15T13:10:32.580Z,25.30
2019-05-15T13:13:05.593Z,26.30
2019-05-15T13:15:34.922Z,26.10
2019-05-15T13:18:05.153Z,25.10
2019-05-15T13:20:35.266Z,26.30
2019-05-15T13:23:05.392Z,25.00
2019-05-15T13:25:35.243Z,24.00
2019-05-15T13:28:05.454Z,25.20
2019-05-15T13:30:40.285Z,25.00
2019-05-15T13:33:10.094Z,26.50
2019-05-15T13:35:39.211Z,25.90
2019-05-15T13:38:10.233Z,26.40
2019-05-15T13:40:42.321Z,25.90
2019-05-15T13:43:12.828Z,25.20
2019-05-15T13:45:42.727Z,26.20
2019-05-15T13:48:12.762Z,25.80
2019-05-15T13:50:42.719Z,24.60
2019-05-15T13:53:12.822Z,24.80
2019-05-15T13:55:43.178Z,25.30
2019-05-15T13:58:13.639Z,24.30
2019-05-15T14:00:44.023Z,23.80
2019-05-15T14:03:14.261Z,24.40
2019-05-15T14:05:45.175Z,24.00
2019-05-15T14:08:17.853Z,24.60
2019-05-15T14:10:48.783Z,26.20
2019-05-15T14:13:19.227Z,26.00
2019-05-15T14:15:49.538Z,25.30
2019-05-15T14:18:20.260Z,25.60
2019-05-15T14:20:50.283Z,25.20
2019-05-15T14:23:20.436Z,25.40
2019-05-15T14:25:55.747Z,26.40
2019-05-15T14:28:29.576Z,25.80
2019-05-15T14:30:58.630Z,25.80
2019-05-15T14:33:29.407Z,25.30
2019-05-15T14:36:02.516Z,25.80
2019-05-15T14:38:40.803Z,24.40
2019-05-15T14:41:12.142Z,25.40
2019-05-15T14:43:42.695Z,24.40
2019-05-15T14:46:18.554Z,24.90
2019-05-15T14:48:52.987Z,24.70
2019-05-15T14:51:23.175Z,25.20
2019-05-15T14:53:53.353Z,25.40
2019-05-15T14:56:23.777Z,26.20
2019-05-15T14:58:54.070Z,27.60
2019-05-15T15:01:24.246Z,26.50
2019-05-15T15:03:54.453Z,26.00
2019-05-15T15:06:24.715Z,27.90
2019-05-15T15:08:55.328Z,27.80
2019-05-15T15:11:25.621Z,27.40
2019-05-15T15:13:57.835Z,27.20
2019-05-15T15:16:29.138Z,27.60
2019-05-15T15:18:58.931Z,28.20
2019-05-15T15:21:29.403Z,28.50
2019-05-15T15:23:59.472Z,28.30
2019-05-15T15:26:29.650Z,29.30
2019-05-15T15:28:59.884Z,28.70
2019-05-15T15:31:30.198Z,28.90
2019-05-15T15:34:00.483Z,29.50
2019-05-15T15:36:30.935Z,29.40
2019-05-15T15:39:01.282Z,28.90
2019-05-15T15:41:31.704Z,30.00
2019-05-15T15:44:02.145Z,29.30
2019-05-15T15:46:32.311Z,29.50
2019-05-15T15:49:02.561Z,30.30
2019-05-15T15:51:32.515Z,30.50
2019-05-15T15:54:02.455Z,31.60
2019-05-15T15:56:32.595Z,31.40
2019-05-15T15:59:02.799Z,32.10
2019-05-15T16:01:32.699Z,32.10
2019-05-15T16:04:02.766Z,32.40
2019-05-15T16:06:32.922Z,32.00
2019-05-15T16:09:03.207Z,31.50
2019-05-15T16:11:33.283Z,32.10
2019-05-15T16:14:03.703Z,31.70
2019-05-15T16:16:33.814Z,32.20
2019-05-15T16:19:04.469Z,34.10
2019-05-15T16:21:34.773Z,33.00
2019-05-15T16:24:17.009Z,32.10
2019-05-15T16:26:38.264Z,32.40
2019-05-15T16:29:09.150Z,32.10
2019-05-15T16:31:42.149Z,32.70
2019-05-15T16:34:12.201Z,33.30
2019-05-15T16:36:42.378Z,33.90
2019-05-15T16:39:12.604Z,32.80
2019-05-15T16:41:43.019Z,33.70
2019-05-15T16:44:15.637Z,33.60
2019-05-15T16:46:45.212Z,32.10
2019-05-15T16:49:15.266Z,32.80
2019-05-15T16:51:45.311Z,32.50
2019-05-15T16:54:18.083Z,32.90
2019-05-15T16:56:48.900Z,31.80
2019-05-15T16:59:38.900Z,32.00
2019-05-15T17:02:13.564Z,31.10
2019-05-15T17:04:44.112Z,31.90
2019-05-15T17:07:14.755Z,31.80
2019-05-15T17:09:45.237Z,32.10
2019-05-15T17:12:15.423Z,32.50
2019-05-15T17:14:45.632Z,33.60
2019-05-15T17:17:17.927Z,33.80
2019-05-15T17:19:48.486Z,34.30
2019-05-15T17:22:19.826Z,34.90
2019-05-15T17:24:49.818Z,34.80
2019-05-15T17:27:20.075Z,34.60
2019-05-15T17:29:50.329Z,34.60
2019-05-15T17:32:20.858Z,35.20
2019-05-15T17:34:55.620Z,34.70
2019-05-15T17:37:28.741Z,35.20
2019-05-15T17:39:59.190Z,35.30
2019-05-15T17:42:29.392Z,34.60
2019-05-15T17:44:59.298Z,34.70
2019-05-15T17:47:29.212Z,35.00
2019-05-15T17:49:59.079Z,34.70
2019-05-15T17:52:29.633Z,34.20
2019-05-15T17:54:59.818Z,35.50
2019-05-15T17:57:29.674Z,33.80
2019-05-15T17:59:59.927Z,34.20
2019-05-15T18:02:30.150Z,34.60
2019-05-15T18:05:00.035Z,33.80
2019-05-15T18:07:30.620Z,34.90
2019-05-15T18:10:00.592Z,34.10
2019-05-15T18:12:30.808Z,34.10
2019-05-15T18:15:00.924Z,34.30
2019-05-15T18:17:31.255Z,34.10
2019-05-15T18:20:01.523Z,34.30
2019-05-15T18:22:32.141Z,35.10
2019-05-15T18:25:02.382Z,34.70
2019-05-15T18:27:32.669Z,35.60
2019-05-15T18:30:03.039Z,36.00
2019-05-15T18:32:34.723Z,36.50
2019-05-15T18:35:08.142Z,35.70
2019-05-15T18:37:39.260Z,36.10
2019-05-15T18:40:10.212Z,36.80
2019-05-15T18:42:40.574Z,36.40
2019-05-15T18:45:11.062Z,36.60
2019-05-15T18:47:41.238Z,36.90
2019-05-15T18:50:13.488Z,36.40
2019-05-15T18:52:44.388Z,36.40
2019-05-15T18:55:14.984Z,37.20
2019-05-15T18:57:45.238Z,37.00
2019-05-15T19:00:18.404Z,37.10
2019-05-15T19:02:47.276Z,37.00
2019-05-15T19:05:18.539Z,36.90
2019-05-15T19:07:48.822Z,37.30
2019-05-15T19:10:19.215Z,36.90
2019-05-15T19:12:49.250Z,37.30
2019-05-15T19:15:20.303Z,36.60
2019-05-15T19:17:50.727Z,36.90
2019-05-15T19:20:21.144Z,37.10
2019-05-15T19:22:51.484Z,37.30
2019-05-15T19:25:21.774Z,36.80
2019-05-15T19:27:51.673Z,37.10
2019-05-15T19:30:21.704Z,36.90
2019-05-15T19:32:52.112Z,37.00
2019-05-15T19:35:23.125Z,37.40
2019-05-15T19:37:53.094Z,37.70
2019-05-15T19:40:23.355Z,37.50
2019-05-15T19:42:53.623Z,37.80
2019-05-15T19:45:24.031Z,37.90
2019-05-15T19:47:54.413Z,37.90
2019-05-15T19:50:28.231Z,38.30
2019-05-15T19:52:59.146Z,38.60
2019-05-15T19:55:29.450Z,38.20
2019-05-15T19:57:59.803Z,38.00
2019-05-15T20:00:30.016Z,37.80
2019-05-15T20:03:00.217Z,37.50
2019-05-15T20:05:30.862Z,38.00
2019-05-15T20:08:01.220Z,38.40
2019-05-15T20:10:31.618Z,39.20
2019-05-15T20:13:01.522Z,39.00
2019-05-15T20:15:31.954Z,39.20
2019-05-15T20:18:02.302Z,38.60
2019-05-15T20:20:32.980Z,38.90
2019-05-15T20:23:03.145Z,38.70
2019-05-15T20:25:33.488Z,38.90
2019-05-15T20:28:03.491Z,39.30
2019-05-15T20:30:33.820Z,39.90
2019-05-15T20:33:06.098Z,40.00
2019-05-15T20:35:38.453Z,40.50
2019-05-15T20:38:08.103Z,41.20
2019-05-15T20:40:38.338Z,41.40
2019-05-15T20:43:09.488Z,41.60
2019-05-15T20:45:39.751Z,41.30
2019-05-15T20:48:09.790Z,41.80
2019-05-15T20:50:40.806Z,42.00
2019-05-15T20:53:11.098Z,42.40
2019-05-15T20:55:41.439Z,42.60
2019-05-15T20:58:11.874Z,42.90
2019-05-15T21:00:41.786Z,42.90
2019-05-15T21:03:12.028Z,43.10
2019-05-15T21:05:42.269Z,43.10
2019-05-15T21:08:12.864Z,43.40
2019-05-15T21:10:43.239Z,43.60
2019-05-15T21:13:13.599Z,43.90
2019-05-15T21:16:02.937Z,43.70
2019-05-15T21:18:32.791Z,44.10
2019-05-15T21:21:03.032Z,44.30
2019-05-15T21:23:33.020Z,45.00
2019-05-15T21:26:03.117Z,44.70
2019-05-15T21:28:33.401Z,44.90
2019-05-15T21:31:03.338Z,45.30
2019-05-15T21:33:33.827Z,45.30
2019-05-15T21:36:04.025Z,45.50
2019-05-15T21:38:34.274Z,46.10
2019-05-15T21:41:04.305Z,46.10
2019-05-15T21:43:34.444Z,46.20
2019-05-15T21:46:04.690Z,46.10
2019-05-15T21:48:35.198Z,46.30
2019-05-15T21:51:11.247Z,46.50
2019-05-15T21:53:38.900Z,47.10
2019-05-15T21:56:09.216Z,47.00
2019-05-15T21:58:39.394Z,47.10
2019-05-15T22:01:10.665Z,47.30
2019-05-15T22:03:41.449Z,47.70
2019-05-15T22:06:18.574Z,47.90
2019-05-15T22:08:48.879Z,48.00
2019-05-15T22:11:21.833Z,48.10
2019-05-15T22:13:51.101Z,48.50
2019-05-15T22:16:21.304Z,48.60
2019-05-15T22:18:51.343Z,49.00
2019-05-15T22:21:21.185Z,49.10
2019-05-15T22:23:51.209Z,50.50
2019-05-15T22:26:21.669Z,50.10
2019-05-15T22:28:51.859Z,49.70
2019-05-15T22:31:22.039Z,49.80
2019-05-15T22:33:52.080Z,50.10
2019-05-15T22:36:22.189Z,49.90
2019-05-15T22:38:52.422Z,49.80
2019-05-15T22:41:22.532Z,50.30
2019-05-15T22:43:54.442Z,50.90
2019-05-15T22:46:24.495Z,51.60
2019-05-15T22:48:54.899Z,52.10
2019-05-15T22:51:24.835Z,52.80
2019-05-15T22:53:54.939Z,53.50
2019-05-15T22:56:25.159Z,53.40
2019-05-15T22:58:55.059Z,53.90
2019-05-15T23:01:25.364Z,54.30
2019-05-15T23:03:58.220Z,54.50
2019-05-15T23:06:28.209Z,54.70
2019-05-15T23:08:58.577Z,54.30
2019-05-15T23:11:29.870Z,54.80
2019-05-15T23:14:00.247Z,55.50
2019-05-15T23:16:30.508Z,56.00
2019-05-15T23:19:01.013Z,56.40
2019-05-15T23:21:31.098Z,56.00
2019-05-15T23:24:01.146Z,56.80
2019-05-15T23:26:31.259Z,57.30
2019-05-15T23:29:01.383Z,57.40
2019-05-15T23:31:31.607Z,58.00
2019-05-15T23:34:01.755Z,58.70
2019-05-15T23:36:31.600Z,59.30
2019-05-15T23:39:01.775Z,59.50
2019-05-15T23:41:33.325Z,59.70
2019-05-15T23:44:03.879Z,60.00
2019-05-15T23:46:33.824Z,60.40
2019-05-15T23:49:03.968Z,60.40
2019-05-15T23:51:34.086Z,60.90
2019-05-15T23:54:04.267Z,61.50
2019-05-15T23:56:34.307Z,62.10
2019-05-15T23:59:04.525Z,63.10
